Charter Quote
Worldwide +1-877-727-2538 Call
Select Language Lang
SAFETY RELIABILITY EXPERIENCE

Private Jet Charter Services - Quanzhou Airport (ZSQZ)

Paramount Business Jets offers private jet charter flights and luxury airliner charters to and from Quanzhou Airport.

AIRPORT INFORMATION
ICAOZSQZ
LOCATIONQuanzhou, China
FACILITY TYPEAIRPORT

At Paramount Business Jets you can hire chartered private jets to and from Quanzhou Airport with as little as 4 hours of notice. All flights booked via Paramount Business Jets are operated by certified direct air carriers that meet and exceed the FAA part 135 and 121 protocol or a foreign equivalent safety authority. Furthermore, Paramount Business Jets subscribes to ARGUS for their third party safety checks of operators, aircraft, and crews prior each and every flight to and from Quanzhou Airport and worldwide.

  • Quote a trip using Quanzhou Airport or call us 24/7 - 365 days a year at +1-877-727-2538.
Questions? Call +1-877-727-2538

METAR Weather Data at Quanzhou Airport, ZSQZ

STATIONZSQZ
OBSERVEDSun Mar 22, 11:00 UTC
NOWMon Jul 22, 10:33 UTC
AGE37991:33 hr ago
WINDNE at 16 mph
VISIBILITY16 miles
CLOUDSmostly cloudy
TEMP64°F (18°C)
DEWPT43°F (6°C)
HUMIDITY46%
BAROMETER1020 hPa (30.12 in Hg)
METARZSQZ 221100Z 04007MPS 360V080 9999 BKN050 18/06 Q1020 NOSIG

Call us on +1-877-727-2538 (24 Hours) to Hire a Private Jet or Get a Quick Quote.

Find Airports Near any Location

Processing
...